Time;durP1;ratioP1;P1;durP2;ratioP2;P2;SDS_P1;SDS_P2;PMS_P1;PMS_P2;Temp;Humidity;BMP_temperature;BMP_pressure;BME280_temperature;BME280_humidity;BME280_pressure;Samples;Min_cycle;Max_cycle;Signal;HPM_P1;HPM_P2
2022/11/14 00:00:00;;;;;;;2.27;2.03;;;4.50;99.90;3.80;95858.00;;;;5095341;28;20213;-59
2022/11/14 00:02:27;;;;;;;2.43;1.90;;;4.50;99.90;3.80;95855.00;;;;5096286;28;20546;-59
2022/11/14 00:04:54;;;;;;;1.70;1.60;;;4.60;99.90;3.60;95863.00;;;;5096016;28;20229;-60
2022/11/14 00:07:20;;;;;;;2.13;2.03;;;4.50;99.90;3.50;95850.00;;;;5095964;28;20206;-60
2022/11/14 00:09:46;;;;;;;1.63;1.53;;;4.40;99.90;3.60;95870.00;;;;5095755;28;20215;-61
2022/11/14 00:12:16;;;;;;;1.43;1.33;;;4.40;99.90;3.70;95861.00;;;;5096031;28;20206;-60
2022/11/14 00:14:43;;;;;;;1.40;1.30;;;4.50;99.90;3.70;95866.00;;;;5095816;28;20226;-60
2022/11/14 00:17:12;;;;;;;1.30;1.30;;;4.50;99.90;3.70;95858.00;;;;5095863;28;20214;-60
2022/11/14 00:19:38;;;;;;;1.17;1.17;;;4.60;99.90;3.70;95853.00;;;;5095680;28;20222;-60
2022/11/14 00:22:05;;;;;;;1.30;1.27;;;4.50;99.90;3.80;95862.00;;;;5095662;28;20210;-59
2022/11/14 00:24:31;;;;;;;1.63;1.53;;;4.70;99.90;3.90;95865.00;;;;5095496;28;20226;-60
2022/11/14 00:27:00;;;;;;;1.67;1.57;;;4.50;99.90;3.60;95876.00;;;;5095668;28;20175;-60
2022/11/14 00:29:27;;;;;;;1.87;1.43;;;4.20;99.90;3.10;95883.00;;;;5095645;28;20296;-62
2022/11/14 00:31:54;;;;;;;1.17;1.17;;;4.10;99.90;3.20;95872.00;;;;5095848;28;20508;-60
2022/11/14 00:34:22;;;;;;;1.43;1.43;;;4.10;99.90;3.40;95878.00;;;;5095602;28;20199;-63
2022/11/14 00:36:49;;;;;;;5.10;1.27;;;4.20;99.90;3.60;95884.00;;;;5095409;28;20237;-58
2022/11/14 00:39:15;;;;;;;1.20;1.20;;;4.30;99.90;3.70;95876.00;;;;5094535;28;20202;-60
2022/11/14 00:41:42;;;;;;;1.23;1.23;;;4.50;99.90;3.70;95868.00;;;;5095221;28;20230;-58
2022/11/14 00:44:10;;;;;;;1.40;1.30;;;4.50;99.90;3.70;95870.00;;;;5094204;28;20612;-58
2022/11/14 00:46:37;;;;;;;1.27;1.27;;;4.50;99.90;3.70;95875.00;;;;5095336;28;20198;-62
2022/11/14 00:49:04;;;;;;;1.63;1.53;;;4.50;99.90;3.80;95824.00;;;;5095136;28;20195;-58
2022/11/14 00:51:31;;;;;;;2.20;2.07;;;4.50;99.90;3.50;95869.00;;;;5095148;28;20214;-58
2022/11/14 00:53:57;;;;;;;1.67;1.57;;;4.50;99.90;3.50;95863.00;;;;5094007;28;20209;-58
2022/11/14 00:56:23;;;;;;;2.13;2.00;;;4.40;99.90;3.60;95869.00;;;;5095074;28;20197;-58
2022/11/14 00:58:50;;;;;;;1.43;1.33;;;4.50;99.90;3.50;95868.00;;;;5095113;28;20251;-58
2022/11/14 01:01:19;;;;;;;1.83;1.73;;;4.50;99.90;3.70;95861.00;;;;5095008;28;20214;-59
2022/11/14 01:03:48;;;;;;;1.50;1.40;;;4.50;99.90;3.80;95852.00;;;;5094709;28;20682;-57
2022/11/14 01:06:16;;;;;;;1.00;1.00;;;4.60;99.90;3.80;95861.00;;;;5094961;28;20275;-59
2022/11/14 01:08:42;;;;;;;1.30;1.20;;;4.50;99.90;3.70;95851.00;;;;5094926;28;20199;-58
2022/11/14 01:11:12;;;;;;;1.63;1.53;;;4.60;99.90;3.70;95851.00;;;;5094855;28;20194;-58
2022/11/14 01:13:39;;;;;;;1.23;1.23;;;4.60;99.90;3.80;95851.00;;;;5094760;28;20214;-59
2022/11/14 01:16:06;;;;;;;1.07;1.07;;;4.70;99.90;3.90;95846.00;;;;5094628;28;20725;-58
2022/11/14 01:18:34;;;;;;;1.50;1.40;;;4.60;99.90;3.60;95848.00;;;;5076809;28;20215;-59
2022/11/14 01:21:05;;;;;;;2.10;1.87;;;4.40;99.90;3.50;95844.00;;;;5094716;28;20230;-60
2022/11/14 01:23:32;;;;;;;1.73;1.63;;;4.30;99.90;3.60;95835.00;;;;5095061;28;20222;-60
2022/11/14 01:26:02;;;;;;;2.80;1.77;;;4.40;99.90;3.60;95836.00;;;;5094663;28;20236;-64
2022/11/14 01:28:29;;;;;;;3.40;1.80;;;4.30;99.90;3.60;95842.00;;;;5094761;28;20187;-59
2022/11/14 01:30:56;;;;;;;1.30;1.20;;;4.30;99.90;3.40;95835.00;;;;5076595;28;20198;-59
2022/11/14 01:33:23;;;;;;;1.20;1.20;;;4.30;99.90;3.40;95830.00;;;;5094384;28;20537;-59
2022/11/14 01:35:49;;;;;;;2.00;1.87;;;4.30;99.90;3.40;95820.00;;;;5094435;28;20210;-58
2022/11/14 01:38:16;;;;;;;1.37;1.37;;;4.20;99.90;3.30;95818.00;;;;5094432;28;20233;-60
2022/11/14 01:40:44;;;;;;;1.20;1.20;;;4.20;99.90;3.30;95811.00;;;;5094492;28;20195;-61
2022/11/14 01:43:30;;;;;;;0.90;0.90;;;4.20;99.90;3.30;95804.00;;;;5094297;28;20214;-60
2022/11/14 01:46:00;;;;;;;1.00;1.00;;;4.20;99.90;3.30;95807.00;;;;5094456;28;20187;-60
2022/11/14 01:48:36;;;;;;;1.50;1.43;;;4.20;99.90;3.30;95799.00;;;;5094574;28;20249;-60
2022/11/14 01:51:17;;;;;;;1.40;1.30;;;4.00;99.90;3.10;95791.00;;;;5094301;28;20194;-60
2022/11/14 01:53:48;;;;;;;1.87;1.77;;;4.00;99.90;3.00;95788.00;;;;5094272;28;20194;-59
2022/11/14 01:56:20;;;;;;;1.60;1.50;;;3.90;99.90;3.10;95784.00;;;;5094154;28;20217;-59
2022/11/14 01:58:53;;;;;;;1.43;1.33;;;3.90;99.90;3.00;95781.00;;;;5094191;28;20666;-60
2022/11/14 02:01:20;;;;;;;1.50;1.40;;;3.90;99.90;3.10;95781.00;;;;5094089;28;20222;-60
2022/11/14 02:03:52;;;;;;;1.60;1.50;;;3.90;99.90;3.20;95782.00;;;;5093073;28;20215;-59
2022/11/14 02:06:23;;;;;;;4.10;2.03;;;4.10;99.90;3.30;95780.00;;;;5093898;28;20222;-60
2022/11/14 02:08:51;;;;;;;2.10;1.60;;;3.90;99.90;3.00;95776.00;;;;5093683;28;20213;-59
2022/11/14 02:11:17;;;;;;;1.23;1.23;;;3.80;99.90;2.70;95779.00;;;;5093814;28;20201;-60
2022/11/14 02:13:44;;;;;;;0.83;0.83;;;3.60;99.90;2.80;95771.00;;;;5093969;28;20213;-59
2022/11/14 02:16:14;;;;;;;1.60;1.53;;;3.60;99.90;2.90;95771.00;;;;5093886;28;20201;-59
2022/11/14 02:18:40;;;;;;;1.90;1.80;;;3.70;99.90;2.90;95775.00;;;;5093864;28;20530;-60
2022/11/14 02:21:07;;;;;;;1.83;1.73;;;;;2.90;95770.00;;;;5092542;28;20539;-58
2022/11/14 02:23:34;;;;;;;1.00;1.00;;;3.70;99.90;2.70;95770.00;;;;5093609;28;20237;-59
2022/11/14 02:26:00;;;;;;;9.00;2.00;;;3.60;99.90;3.00;95764.00;;;;5093656;28;20267;-62
2022/11/14 02:28:27;;;;;;;1.63;1.53;;;3.80;99.90;3.00;95769.00;;;;5075802;28;20237;-61
2022/11/14 02:30:54;;;;;;;1.50;1.40;;;3.80;99.90;3.00;95770.00;;;;5093870;28;20205;-58
2022/11/14 02:33:20;;;;;;;2.23;2.10;;;3.80;99.90;2.90;95768.00;;;;5093512;28;20209;-59
2022/11/14 02:35:47;;;;;;;1.50;1.40;;;3.70;99.90;2.90;95780.00;;;;5092604;28;20205;-60
2022/11/14 02:38:14;;;;;;;1.50;1.43;;;3.80;99.90;3.10;95777.00;;;;5094855;28;20205;-60
2022/11/14 02:40:40;;;;;;;1.17;1.17;;;3.80;99.90;3.00;95782.00;;;;5093518;28;20278;-62
2022/11/14 02:43:06;;;;;;;2.43;1.50;;;4.00;99.90;3.10;95789.00;;;;5093610;28;20416;-62
2022/11/14 02:45:35;;;;;;;2.00;1.63;;;3.90;99.90;3.20;95775.00;;;;5093698;28;20257;-62
2022/11/14 02:48:02;;;;;;;1.47;1.37;;;4.10;99.90;3.30;95790.00;;;;5093566;28;20229;-60
2022/11/14 02:50:29;;;;;;;2.00;1.83;;;;;3.30;95790.00;;;;5093367;28;20205;-60
2022/11/14 02:52:56;;;;;;;1.00;1.00;;;4.20;99.90;3.40;95775.00;;;;5093453;28;20198;-59
2022/11/14 02:55:23;;;;;;;1.13;1.13;;;4.30;99.90;3.40;95780.00;;;;5093363;28;20537;-59
2022/11/14 02:57:49;;;;;;;7.97;1.50;;;4.30;99.90;3.40;95781.00;;;;5093041;28;20525;-60
2022/11/14 03:00:17;;;;;;;1.43;1.43;;;4.20;99.90;3.50;95785.00;;;;5093271;28;20201;-58
2022/11/14 03:02:44;;;;;;;0.77;0.77;;;4.30;99.90;3.50;95785.00;;;;5093226;28;20231;-59
2022/11/14 03:05:10;;;;;;;1.87;1.77;;;4.20;99.90;3.40;95782.00;;;;5093188;28;20207;-59
2022/11/14 03:07:37;;;;;;;2.00;1.80;;;4.30;99.90;3.40;95798.00;;;;5093041;28;20230;-60
2022/11/14 03:10:05;;;;;;;0.80;0.80;;;4.30;99.90;3.40;95771.00;;;;5093538;28;20534;-59
2022/11/14 03:12:32;;;;;;;1.50;1.50;;;4.30;99.90;3.40;95788.00;;;;5093075;28;20202;-59
2022/11/14 03:14:58;;;;;;;1.07;1.07;;;4.30;99.90;3.30;95788.00;;;;5093160;28;20199;-59
2022/11/14 03:17:24;;;;;;;1.33;1.33;;;4.20;99.90;3.40;95798.00;;;;5093047;28;20206;-58
2022/11/14 03:19:53;;;;;;;1.00;1.00;;;4.20;99.90;3.30;95799.00;;;;5092941;28;20230;-59
2022/11/14 03:22:19;;;;;;;1.03;1.03;;;4.20;99.90;3.30;95794.00;;;;5092930;28;20665;-61
2022/11/14 03:24:46;;;;;;;0.90;0.90;;;4.20;99.90;3.30;95798.00;;;;5091816;28;20344;-60
2022/11/14 03:27:12;;;;;;;3.33;1.43;;;4.20;99.90;3.30;95794.00;;;;5093172;28;20202;-60
2022/11/14 03:29:39;;;;;;;1.40;1.30;;;4.20;99.90;3.30;95788.00;;;;5092941;28;20187;-62
2022/11/14 03:32:06;;;;;;;1.87;1.77;;;4.20;99.90;3.30;95783.00;;;;5093034;28;20230;-62
2022/11/14 03:34:35;;;;;;;1.20;1.20;;;4.20;99.90;3.20;95773.00;;;;5095177;28;20209;-60
2022/11/14 03:37:02;;;;;;;1.07;1.03;;;4.10;99.90;3.30;95773.00;;;;5096210;28;20237;-62
2022/11/14 03:39:28;;;;;;;1.23;1.23;;;4.20;99.90;3.30;95770.00;;;;5096239;28;20523;-62
2022/11/14 03:41:57;;;;;;;1.10;1.10;;;4.20;99.90;3.10;95755.00;;;;5096157;28;20226;-57
2022/11/14 03:44:23;;;;;;;1.20;1.20;;;4.00;99.90;3.20;95745.00;;;;5096135;28;20222;-59
2022/11/14 03:46:52;;;;;;;2.20;2.10;;;4.00;99.90;3.10;95753.00;;;;5096217;28;20577;-59
2022/11/14 03:49:21;;;;;;;1.53;1.43;;;4.00;99.90;3.10;95758.00;;;;5096281;28;20211;-59
2022/11/14 03:51:47;;;;;;;1.00;1.00;;;3.80;99.90;2.80;95762.00;;;;5095993;28;20206;-60
2022/11/14 03:54:16;;;;;;;2.13;1.93;;;3.70;99.90;2.90;95728.00;;;;5078369;28;20222;-60
2022/11/14 03:56:44;;;;;;;1.13;1.13;;;3.70;99.90;2.80;95755.00;;;;5096043;28;20207;-59
2022/11/14 03:59:11;;;;;;;0.93;0.93;;;3.70;99.90;2.80;95753.00;;;;5096026;28;20225;-59
2022/11/14 04:01:37;;;;;;;1.37;1.37;;;3.60;99.90;2.90;95761.00;;;;5096049;28;20259;-61
2022/11/14 04:04:04;;;;;;;1.80;1.23;;;3.70;99.90;2.80;95756.00;;;;5095940;28;20249;-60
2022/11/14 04:06:31;;;;;;;3.40;1.70;;;3.70;99.90;2.90;95754.00;;;;5095969;28;20193;-58
2022/11/14 04:08:57;;;;;;;0.80;0.80;;;3.60;99.90;2.70;95760.00;;;;5095857;28;20198;-59
2022/11/14 04:11:23;;;;;;;0.83;0.83;;;3.60;99.90;2.70;95760.00;;;;5095799;28;20198;-60
2022/11/14 04:13:50;;;;;;;1.50;1.40;;;3.60;99.90;2.70;95760.00;;;;5095853;28;20248;-63
2022/11/14 04:16:18;;;;;;;1.10;1.10;;;3.60;99.90;2.70;95768.00;;;;5095757;28;20236;-60
2022/11/14 04:18:44;;;;;;;1.20;1.20;;;3.60;99.90;2.80;95766.00;;;;5095715;28;20517;-60
2022/11/14 04:21:11;;;;;;;1.90;1.80;;;3.60;99.90;2.80;95775.00;;;;5095551;28;20217;-61
2022/11/14 04:23:38;;;;;;;1.00;1.00;;;3.60;99.90;2.90;95768.00;;;;5096010;28;20226;-59
2022/11/14 04:26:04;;;;;;;0.90;0.90;;;3.80;99.90;2.90;95755.00;;;;5095542;28;20251;-57
2022/11/14 04:28:31;;;;;;;1.77;1.67;;;3.80;99.90;3.00;95745.00;;;;5095628;28;20201;-58
2022/11/14 04:30:59;;;;;;;1.53;1.47;;;3.90;99.90;3.10;95744.00;;;;5095474;28;20199;-59
2022/11/14 04:33:27;;;;;;;1.37;1.27;;;4.00;99.90;3.10;95745.00;;;;5095690;28;20191;-59
2022/11/14 04:35:54;;;;;;;0.63;0.63;;;3.80;99.90;3.00;95749.00;;;;5095422;28;20286;-59
2022/11/14 04:38:23;;;;;;;0.93;0.93;;;3.80;99.90;2.90;95736.00;;;;5095229;28;20316;-61
2022/11/14 04:40:50;;;;;;;1.10;1.10;;;3.70;99.90;3.00;95741.00;;;;5095333;28;20210;-60
2022/11/14 04:43:20;;;;;;;2.43;1.80;;;3.80;99.90;3.10;95740.00;;;;5095301;28;20226;-61
2022/11/14 04:45:47;;;;;;;0.97;0.97;;;3.70;99.90;2.80;95746.00;;;;5094932;28;20202;-60
2022/11/14 04:48:16;;;;;;;1.00;1.00;;;3.60;99.90;2.70;95748.00;;;;5095286;28;20279;-62
2022/11/14 04:50:45;;;;;;;1.30;1.23;;;3.60;99.90;2.70;95757.00;;;;5095138;28;20285;-60
2022/11/14 04:53:13;;;;;;;3.03;1.30;;;3.50;99.90;2.70;95752.00;;;;5095228;28;20269;-60
2022/11/14 04:55:42;;;;;;;2.97;2.07;;;3.60;99.90;2.80;95737.00;;;;5095044;28;20233;-60
2022/11/14 04:58:11;;;;;;;1.43;1.30;;;3.70;99.90;2.90;95737.00;;;;5095191;28;20210;-60
2022/11/14 05:00:40;;;;;;;1.00;1.00;;;3.60;99.90;2.70;95738.00;;;;5094899;28;20523;-59
2022/11/14 05:03:09;;;;;;;1.10;1.10;;;3.60;99.90;2.80;95733.00;;;;5094812;28;20213;-59
2022/11/14 05:05:35;;;;;;;0.97;0.97;;;3.50;99.90;2.60;95730.00;;;;5095035;28;20194;-59
2022/11/14 05:08:04;;;;;;;1.53;1.43;;;3.50;99.90;2.70;95723.00;;;;5094923;28;20238;-61
2022/11/14 05:10:30;;;;;;;1.43;1.43;;;3.50;99.90;2.70;95739.00;;;;5094890;28;20194;-59
2022/11/14 05:12:57;;;;;;;1.53;1.43;;;3.40;99.90;2.50;95726.00;;;;5094881;28;20190;-59
2022/11/14 05:15:26;;;;;;;1.00;1.00;;;3.50;99.90;2.60;95731.00;;;;5076793;28;20214;-61
2022/11/14 05:17:52;;;;;;;1.77;1.67;;;3.50;99.90;2.60;95727.00;;;;5094657;28;20589;-59
2022/11/14 05:20:19;;;;;;;1.10;1.10;;;3.40;99.90;2.60;95723.00;;;;5094890;28;20216;-59
2022/11/14 05:22:45;;;;;;;0.87;0.87;;;3.50;99.90;2.70;95724.00;;;;5094580;28;20233;-59
2022/11/14 05:25:11;;;;;;;1.53;1.43;;;3.50;99.90;2.70;95725.00;;;;5094747;28;20209;-60
2022/11/14 05:27:38;;;;;;;1.20;1.20;;;3.60;99.90;2.80;95732.00;;;;5093884;28;20292;-59
2022/11/14 05:30:07;;;;;;;0.87;0.87;;;3.60;99.90;2.80;95735.00;;;;5076871;28;20201;-59
2022/11/14 05:32:35;;;;;;;2.77;1.97;;;3.60;99.90;2.70;95723.00;;;;5094495;28;20530;-59
2022/11/14 05:35:03;;;;;;;1.87;1.77;;;3.60;99.90;2.70;95728.00;;;;5094559;28;20206;-59
2022/11/14 05:37:29;;;;;;;1.43;1.27;;;3.60;99.90;2.90;95714.00;;;;5094247;28;20261;-59
2022/11/14 05:39:56;;;;;;;5.00;2.07;;;3.70;99.90;2.80;95722.00;;;;5094337;28;20218;-59
2022/11/14 05:42:22;;;;;;;1.67;1.57;;;3.70;99.90;2.90;95722.00;;;;5094168;28;20239;-60
2022/11/14 05:44:49;;;;;;;0.80;0.80;;;3.70;99.90;2.90;95731.00;;;;5094555;28;20201;-59
2022/11/14 05:47:19;;;;;;;0.70;0.70;;;3.70;99.90;2.90;95723.00;;;;5094366;28;20209;-59
2022/11/14 05:49:45;;;;;;;2.13;1.83;;;3.80;99.90;2.90;95720.00;;;;5094400;28;20217;-59
2022/11/14 05:52:12;;;;;;;1.70;1.60;;;3.80;99.90;2.90;95707.00;;;;5094324;28;20206;-58
2022/11/14 05:54:38;;;;;;;1.37;1.27;;;3.70;99.90;3.00;95714.00;;;;5094191;28;20191;-60
2022/11/14 05:57:05;;;;;;;3.53;1.50;;;3.70;99.90;2.90;95708.00;;;;5092414;28;20567;-60
2022/11/14 05:59:31;;;;;;;1.23;1.23;;;3.70;99.90;2.90;95699.00;;;;5094112;28;20585;-59
2022/11/14 06:01:57;;;;;;;1.33;1.33;;;3.70;99.90;2.90;95701.00;;;;5093906;28;20659;-59
2022/11/14 06:04:24;;;;;;;0.80;0.80;;;3.70;99.90;2.80;95701.00;;;;5093991;28;20226;-61
2022/11/14 06:06:52;;;;;;;0.83;0.83;;;;;2.80;95716.00;;;;5093937;28;20199;-60
2022/11/14 06:09:19;;;;;;;1.40;1.40;;;3.60;99.90;2.60;95710.00;;;;5094085;28;20280;-60
2022/11/14 06:11:45;;;;;;;1.40;1.30;;;3.60;99.90;2.70;95704.00;;;;5093858;28;20202;-58
2022/11/14 06:14:12;;;;;;;0.93;0.93;;;3.60;99.90;2.70;95708.00;;;;5093764;28;20214;-60
2022/11/14 06:16:39;;;;;;;2.13;2.03;;;;;2.80;95728.00;;;;5093798;28;20190;-61
2022/11/14 06:19:05;;;;;;;1.50;1.40;;;3.60;99.90;2.70;95714.00;;;;5093697;28;20237;-59
2022/11/14 06:21:32;;;;;;;1.17;1.07;;;3.60;99.90;2.70;95721.00;;;;5093703;28;20197;-59
2022/11/14 06:23:59;;;;;;;1.40;1.40;;;3.60;99.90;2.80;95725.00;;;;5093554;28;20610;-59
2022/11/14 06:26:29;;;;;;;1.73;1.63;;;3.50;99.90;2.70;95724.00;;;;5093562;28;20284;-58
2022/11/14 06:28:57;;;;;;;1.80;1.70;;;3.60;99.90;2.80;95734.00;;;;5093807;28;20203;-58
2022/11/14 06:31:26;;;;;;;1.40;1.40;;;3.60;99.90;2.80;95734.00;;;;5093419;28;20201;-59
2022/11/14 06:33:55;;;;;;;1.40;1.40;;;;;2.90;95744.00;;;;5075617;28;20661;-59
2022/11/14 06:36:24;;;;;;;1.40;1.40;;;3.70;99.90;2.90;95738.00;;;;5075543;28;20277;-59
2022/11/14 06:38:53;;;;;;;1.10;1.10;;;3.80;99.90;2.90;95734.00;;;;5093522;28;20197;-60
2022/11/14 06:41:21;;;;;;;2.60;1.97;;;;;3.00;95740.00;;;;5075533;28;20227;-60
2022/11/14 06:43:51;;;;;;;1.40;1.40;;;3.90;99.90;3.00;95737.00;;;;5093254;28;20262;-60
2022/11/14 06:46:20;;;;;;;2.37;1.93;;;3.90;99.90;3.00;95749.00;;;;5093346;28;20201;-59
2022/11/14 06:48:51;;;;;;;1.43;1.33;;;3.90;99.90;3.00;95738.00;;;;5093268;28;20280;-60
2022/11/14 06:51:17;;;;;;;1.43;1.40;;;3.90;99.90;3.00;95742.00;;;;5093268;28;20209;-60
2022/11/14 06:53:44;;;;;;;1.23;1.23;;;3.90;99.90;3.00;95752.00;;;;5093232;28;20531;-59
2022/11/14 06:56:13;;;;;;;2.67;2.47;;;;;3.10;95759.00;;;;5093175;28;20207;-60
2022/11/14 06:58:44;;;;;;;1.63;1.53;;;3.90;99.90;3.20;95758.00;;;;5075389;28;20214;-59
2022/11/14 07:01:13;;;;;;;3.07;2.73;;;4.10;99.90;3.30;95757.00;;;;5092642;28;20292;-59
2022/11/14 07:03:40;;;;;;;1.60;1.57;;;4.10;99.90;3.20;95751.00;;;;5093091;28;20557;-60
2022/11/14 07:06:10;;;;;;;1.33;1.33;;;4.20;99.90;3.30;95744.00;;;;5093231;28;20280;-59
2022/11/14 07:08:37;;;;;;;1.43;1.33;;;4.20;99.90;3.40;95753.00;;;;5095394;28;20549;-59
2022/11/14 07:11:06;;;;;;;2.33;2.00;;;4.20;99.90;3.30;95750.00;;;;5096778;28;20213;-64
2022/11/14 07:13:35;;;;;;;1.80;1.70;;;4.20;99.90;3.40;95746.00;;;;5096624;28;20251;-60
2022/11/14 07:16:03;;;;;;;1.77;1.67;;;4.20;99.90;3.40;95753.00;;;;5096511;28;20219;-59
2022/11/14 07:18:31;;;;;;;1.37;1.37;;;4.30;99.90;3.50;95743.00;;;;5078724;28;20222;-60
2022/11/14 07:20:59;;;;;;;2.00;1.90;;;4.30;99.90;3.50;95736.00;;;;5096452;28;20581;-59
2022/11/14 07:23:26;;;;;;;2.70;2.50;;;4.30;99.90;3.50;95744.00;;;;5096446;28;20207;-59
2022/11/14 07:25:53;;;;;;;2.23;1.80;;;4.40;99.90;3.60;95751.00;;;;5096448;28;20203;-59
2022/11/14 07:28:19;;;;;;;2.43;2.23;;;4.30;99.90;3.50;95748.00;;;;5096446;28;20202;-58
2022/11/14 07:30:47;;;;;;;0.80;0.80;;;4.40;99.90;3.70;95747.00;;;;5095772;28;20198;-60
2022/11/14 07:33:13;;;;;;;2.13;1.90;;;4.50;99.90;3.70;95749.00;;;;5096212;28;20222;-60
2022/11/14 07:35:42;;;;;;;1.13;1.00;;;4.60;99.90;3.80;95751.00;;;;5096268;28;20561;-60
2022/11/14 07:38:11;;;;;;;2.07;1.87;;;4.60;99.90;3.90;95751.00;;;;5096151;28;20230;-59
2022/11/14 07:40:37;;;;;;;2.60;2.40;;;4.70;99.90;4.00;95769.00;;;;5096402;28;20198;-61
2022/11/14 07:43:04;;;;;;;3.93;1.90;;;4.70;99.90;3.90;95754.00;;;;5096093;28;20678;-59
2022/11/14 07:45:30;;;;;;;2.10;2.00;;;4.70;99.90;4.00;95757.00;;;;5096282;28;20214;-59
2022/11/14 07:48:00;;;;;;;3.33;3.03;;;4.90;99.90;4.20;95759.00;;;;5096329;28;20191;-59
2022/11/14 07:50:28;;;;;;;1.47;1.40;;;4.90;99.90;4.20;95755.00;;;;5096126;28;20187;-60
2022/11/14 07:52:56;;;;;;;1.70;1.60;;;5.10;99.90;4.40;95756.00;;;;5096076;28;20214;-61
2022/11/14 07:55:23;;;;;;;2.07;1.87;;;5.10;99.90;4.40;95756.00;;;;5096024;28;20229;-58
2022/11/14 07:57:53;;;;;;;1.63;1.53;;;5.30;99.90;4.40;95755.00;;;;5078561;28;20218;-59
2022/11/14 08:00:21;;;;;;;1.80;1.70;;;5.30;99.90;4.50;95752.00;;;;5095784;28;20230;-59
2022/11/14 08:02:48;;;;;;;4.83;1.60;;;5.30;99.90;4.50;95758.00;;;;5095743;28;20219;-59
2022/11/14 08:05:15;;;;;;;1.30;1.30;;;5.40;99.90;4.60;95760.00;;;;5095807;28;20340;-59
2022/11/14 08:07:42;;;;;;;1.97;1.73;;;5.40;99.90;4.70;95762.00;;;;5095859;28;20523;-60
2022/11/14 08:10:13;;;;;;;1.87;1.77;;;5.50;99.90;4.90;95766.00;;;;5095924;28;20198;-61
2022/11/14 08:12:40;;;;;;;2.13;1.93;;;5.60;99.90;5.10;95756.00;;;;5095680;28;20229;-58
2022/11/14 08:15:14;;;;;;;3.30;2.70;;;5.90;99.90;5.30;95763.00;;;;5077974;28;20208;-59
2022/11/14 08:17:42;;;;;;;2.93;2.60;;;5.90;99.90;5.50;95762.00;;;;5095563;28;20218;-58
2022/11/14 08:20:10;;;;;;;1.50;1.40;;;6.20;99.90;5.40;95762.00;;;;5094732;28;20211;-59
2022/11/14 08:22:37;;;;;;;1.47;1.47;;;6.10;99.90;5.60;95765.00;;;;5095486;28;20218;-58
2022/11/14 08:25:05;;;;;;;2.07;1.97;;;6.30;99.90;5.70;95768.00;;;;5078063;28;20199;-59
2022/11/14 08:27:34;;;;;;;1.20;1.20;;;6.40;99.90;5.90;95765.00;;;;5095556;28;20610;-60
2022/11/14 08:30:00;;;;;;;1.67;1.57;;;6.60;99.90;5.90;95758.00;;;;5095614;28;20190;-59
2022/11/14 08:32:27;;;;;;;3.13;2.80;;;6.60;99.90;5.80;95771.00;;;;5095598;28;20234;-60
2022/11/14 08:34:53;;;;;;;1.93;1.77;;;6.60;99.90;5.90;95773.00;;;;5095286;28;20233;-59
2022/11/14 08:37:20;;;;;;;3.17;2.87;;;6.60;99.90;5.90;95773.00;;;;5094794;28;20539;-59
2022/11/14 08:39:47;;;;;;;1.40;1.40;;;6.70;99.90;5.90;95772.00;;;;5094318;28;20226;-59
2022/11/14 08:42:13;;;;;;;1.93;1.57;;;6.60;99.90;5.80;95777.00;;;;5095406;28;20194;-61
2022/11/14 08:44:42;;;;;;;0.83;0.83;;;6.60;99.90;5.90;95773.00;;;;5095274;28;20251;-59
2022/11/14 08:47:09;;;;;;;2.17;2.07;;;6.70;99.90;6.10;95772.00;;;;5095362;28;20266;-64
2022/11/14 08:49:36;;;;;;;0.97;0.97;;;6.80;99.90;6.00;95776.00;;;;5095380;28;20225;-59
2022/11/14 08:52:02;;;;;;;2.23;2.03;;;6.80;99.90;5.90;95770.00;;;;5095297;28;20273;-60
2022/11/14 08:54:29;;;;;;;1.30;1.30;;;6.70;99.90;5.90;95767.00;;;;5095301;28;20231;-60
2022/11/14 08:56:56;;;;;;;0.83;0.83;;;6.70;99.90;5.90;95771.00;;;;5095025;28;20305;-59
2022/11/14 08:59:22;;;;;;;2.07;1.97;;;6.70;99.90;5.90;95772.00;;;;5095134;28;20202;-59
2022/11/14 09:01:49;;;;;;;1.40;1.40;;;6.70;99.90;5.90;95764.00;;;;5094913;28;20708;-60
2022/11/14 09:04:15;;;;;;;1.53;1.43;;;6.70;99.90;5.90;95764.00;;;;5095025;28;20230;-59
2022/11/14 09:06:41;;;;;;;2.20;2.10;;;6.70;99.90;6.00;95761.00;;;;5094895;28;20238;-59
2022/11/14 09:09:08;;;;;;;2.10;2.00;;;6.70;99.90;6.00;95763.00;;;;5094718;28;20209;-60
2022/11/14 09:11:35;;;;;;;2.53;1.57;;;6.80;99.90;6.10;95773.00;;;;5094871;28;20276;-59
2022/11/14 09:14:04;;;;;;;1.70;1.60;;;6.90;99.90;6.10;95770.00;;;;5094691;28;20265;-59
2022/11/14 09:16:32;;;;;;;1.60;1.53;;;6.90;99.90;6.20;95762.00;;;;5095034;28;20197;-60
2022/11/14 09:19:01;;;;;;;1.50;1.50;;;7.00;99.90;6.20;95764.00;;;;5094626;28;20217;-59
2022/11/14 09:21:29;;;;;;;2.23;1.67;;;7.00;99.90;6.30;95768.00;;;;5094649;28;20211;-61
2022/11/14 09:23:56;;;;;;;1.27;1.27;;;7.10;99.90;6.30;95766.00;;;;5094647;28;20684;-60
2022/11/14 09:26:22;;;;;;;0.90;0.90;;;7.10;99.90;6.30;95778.00;;;;5094541;28;20285;-59
2022/11/14 09:28:49;;;;;;;1.00;1.00;;;7.10;99.90;6.40;95777.00;;;;5094589;28;20197;-59
2022/11/14 09:31:16;;;;;;;1.33;1.27;;;7.20;99.90;6.40;95775.00;;;;5093254;28;20261;-58
2022/11/14 09:33:42;;;;;;;2.20;2.00;;;7.20;99.90;6.40;95777.00;;;;5094423;28;20202;-58
2022/11/14 09:36:14;;;;;;;0.80;0.80;;;7.20;99.90;6.50;95777.00;;;;5094235;28;20243;-58
2022/11/14 09:38:44;;;;;;;1.03;1.03;;;7.30;99.90;6.50;95770.00;;;;5093330;28;20223;-60
2022/11/14 09:41:25;;;;;;;1.10;1.10;;;7.30;99.90;6.60;95767.00;;;;5094265;28;20230;-58
2022/11/14 09:44:34;;;;;;;0.80;0.80;;;7.30;99.90;6.60;95774.00;;;;5094436;28;20225;-58
2022/11/14 09:47:06;;;;;;;1.00;1.00;;;7.40;99.90;6.60;95775.00;;;;5086691;28;20230;-58
2022/11/14 09:49:38;;;;;;;0.80;0.80;;;7.40;99.90;6.70;95768.00;;;;5094100;28;20236;-58
2022/11/14 09:52:25;;;;;;;1.67;1.57;;;7.50;99.90;6.70;95777.00;;;;5094109;28;20594;-61
2022/11/14 09:54:58;;;;;;;1.40;1.37;;;7.50;99.90;6.70;95774.00;;;;5094208;28;20198;-59
2022/11/14 09:57:26;;;;;;;1.33;1.33;;;7.50;99.90;6.70;95763.00;;;;5093975;28;20233;-59
2022/11/14 09:59:54;;;;;;;1.50;1.40;;;7.50;99.90;6.80;95773.00;;;;5094081;28;20203;-61
2022/11/14 10:02:43;;;;;;;0.93;0.93;;;7.50;99.90;6.80;95763.00;;;;5093236;28;20199;-59
2022/11/14 10:05:42;;;;;;;1.10;1.10;;;7.60;99.90;6.90;95765.00;;;;5094079;28;20211;-59
2022/11/14 10:08:43;;;;;;;0.80;0.80;;;7.70;99.90;6.90;95764.00;;;;5061594;28;20272;-58
2022/11/14 10:11:22;;;;;;;0.70;0.70;;;7.70;99.90;7.00;95770.00;;;;5093973;28;20281;-58
2022/11/14 10:14:31;;;;;;;1.23;1.13;;;7.70;99.90;7.10;95771.00;;;;5093736;28;20230;-58
2022/11/14 10:17:18;;;;;;;1.00;1.00;;;7.80;99.90;7.20;95765.00;;;;5047304;28;20217;-60
2022/11/14 10:19:59;;;;;;;0.70;0.70;;;7.90;99.90;7.50;95769.00;;;;5093897;28;20620;-58
2022/11/14 10:22:56;;;;;;;0.70;0.70;;;8.10;99.90;7.50;95769.00;;;;5092842;28;20262;-62
2022/11/14 10:25:29;;;;;;;0.60;0.60;;;8.20;99.90;7.60;95768.00;;;;5092770;28;20230;-58
2022/11/14 10:28:29;;;;;;;0.80;0.80;;;8.30;99.90;7.80;95763.00;;;;5093688;28;20199;-58
2022/11/14 10:31:06;;;;;;;1.03;1.03;;;8.40;99.90;7.80;95764.00;;;;5093520;28;20652;-62
2022/11/14 10:33:47;;;;;;;1.30;1.30;;;8.50;99.90;8.00;95766.00;;;;5093583;28;20259;-58
2022/11/14 10:36:27;;;;;;;0.70;0.70;;;8.60;99.90;8.00;95759.00;;;;5093646;28;20202;-60
2022/11/14 10:39:07;;;;;;;1.00;1.00;;;8.70;99.90;8.10;95766.00;;;;5093657;28;20194;-61
2022/11/14 10:41:35;;;;;;;0.77;0.77;;;8.80;99.90;8.10;95765.00;;;;5092806;28;20733;-59
2022/11/14 10:44:03;;;;;;;0.80;0.80;;;8.80;99.90;8.30;95763.00;;;;5092863;28;20215;-59
2022/11/14 10:46:37;;;;;;;0.80;0.80;;;8.90;99.90;8.30;95763.00;;;;5093416;28;20245;-64
2022/11/14 10:49:18;;;;;;;0.60;0.60;;;9.00;99.90;8.30;95746.00;;;;5093464;28;20210;-58
2022/11/14 10:51:53;;;;;;;0.50;0.50;;;8.90;99.90;8.40;95771.00;;;;5093436;28;20283;-58
2022/11/14 10:54:26;;;;;;;0.50;0.50;;;;;8.60;95760.00;;;;5093325;28;20195;-57
2022/11/14 10:56:54;;;;;;;0.70;0.70;;;9.20;99.90;8.60;95760.00;;;;5093561;28;20194;-60
2022/11/14 10:59:22;;;;;;;0.53;0.53;;;9.20;99.90;8.60;95754.00;;;;5093362;28;20229;-58
2022/11/14 11:01:55;;;;;;;0.60;0.60;;;9.30;99.90;8.70;95753.00;;;;5093365;28;20210;-57
2022/11/14 11:04:26;;;;;;;0.90;0.90;;;9.30;99.90;8.70;95760.00;;;;5093274;28;20221;-59
2022/11/14 11:06:56;;;;;;;0.70;0.70;;;9.40;99.90;8.80;95752.00;;;;5093187;28;20230;-60
2022/11/14 11:12:18;;;;;;;0.67;0.67;;;9.60;99.60;8.80;95760.00;;;;5093372;28;20728;-58
2022/11/14 11:14:47;;;;;;;0.80;0.80;;;9.50;99.40;8.90;95760.00;;;;5093573;28;20701;-59
2022/11/14 11:17:19;;;;;;;1.13;1.13;;;9.50;98.50;8.90;95727.00;;;;5093235;28;20241;-58
2022/11/14 11:19:47;;;;;;;0.60;0.60;;;;;8.90;95755.00;;;;5092648;28;20285;-59
2022/11/14 11:22:27;;;;;;;2.00;0.90;;;;;9.00;95760.00;;;;5092921;28;20251;-59